CheckWX is a tool to help pilots better visualize weather data.  It is not intended as a substitute for an official pre-flight weather briefing.

03:43:25 UTC

LLBG METAR
Ben Gurion International Airport
Tel Aviv, Israel
Current

23 mins ago

LLBG 020320Z 13004KT 9000 SCT014 BKN018 13/10 Q1015 TEMPO BKN013
Observed
Apr-2 @ 03:20 UTC
Wind
  • 130° at 4 KTS
Visibility
8996 meters
Flight Rules
MVFR
Cloud Levels
  • Scattered at 1,400' AGL
  • Broken at 1,800' AGL
Temperature
13°C / 55°F
Dewpoint
10°C / 50°F
Humidity
82%
Altimeter
29.97" Hg
Pressure
1014.92 hPa
Previous

53 mins ago

LLBG 020250Z 15004KT 9999 FEW015 SCT020 13/11 Q1014 NOSIG
Observed
Apr-2 @ 02:50 UTC
Wind
  • 150° at 4 KTS
Visibility
10,000+ meters
Flight Rules
VFR
Cloud Levels
  • Few at 1,500' AGL
  • Scattered at 2,000' AGL
Temperature
13°C / 55°F
Dewpoint
11°C / 52°F
Humidity
88%
Altimeter
29.94" Hg
Pressure
1013.92 hPa
Previous

1 hour ago

LLBG 020220Z VRB02KT 9999 FEW017 13/11 Q1014 NOSIG
Observed
Apr-2 @ 02:20 UTC
Wind
  • Variable at 2 KTS
Visibility
10,000+ meters
Flight Rules
VFR
Cloud Levels
  • Few at 1,700' AGL
Temperature
13°C / 55°F
Dewpoint
11°C / 52°F
Humidity
88%
Altimeter
29.94" Hg
Pressure
1013.92 hPa